createdAt,value
2022-09-15T00:00:22.407Z,58.00
2022-09-15T00:02:52.065Z,52.73
2022-09-15T00:05:20.448Z,50.73
2022-09-15T00:07:48.962Z,52.27
2022-09-15T00:10:17.391Z,53.33
2022-09-15T00:12:45.573Z,54.53
2022-09-15T00:15:14.765Z,53.50
2022-09-15T00:17:43.456Z,56.73
2022-09-15T00:20:13.228Z,61.53
2022-09-15T00:22:41.374Z,61.17
2022-09-15T00:25:09.761Z,57.80
2022-09-15T00:27:38.317Z,58.57
2022-09-15T00:30:07.139Z,58.83
2022-09-15T00:32:35.317Z,55.93
2022-09-15T00:35:03.457Z,58.00
2022-09-15T00:37:33.084Z,57.43
2022-09-15T00:40:01.305Z,56.43
2022-09-15T00:42:29.581Z,56.87
2022-09-15T00:44:58.584Z,52.53
2022-09-15T00:47:27.948Z,54.67
2022-09-15T00:49:59.338Z,50.47
2022-09-15T00:52:29.493Z,55.80
2022-09-15T00:55:00.484Z,56.30
2022-09-15T00:57:31.619Z,56.27
2022-09-15T01:00:01.136Z,53.17
2022-09-15T01:02:30.532Z,61.90
2022-09-15T01:05:00.925Z,60.80
2022-09-15T01:07:31.959Z,57.63
2022-09-15T01:10:02.975Z,61.27
2022-09-15T01:12:31.130Z,54.77
2022-09-15T01:15:01.688Z,60.17
2022-09-15T01:17:35.484Z,60.10
2022-09-15T01:20:15.966Z,60.47
2022-09-15T01:22:55.252Z,58.70
2022-09-15T01:25:35.158Z,61.63
2022-09-15T01:28:23.216Z,60.93
2022-09-15T01:30:57.520Z,64.43
2022-09-15T01:33:32.036Z,55.90
2022-09-15T01:36:03.472Z,62.83
2022-09-15T01:38:52.551Z,63.87
2022-09-15T01:41:25.319Z,54.77
2022-09-15T01:43:55.716Z,59.50
2022-09-15T01:46:27.687Z,57.40
2022-09-15T01:48:56.664Z,56.90
2022-09-15T01:51:25.875Z,59.60
2022-09-15T01:53:54.871Z,58.13
2022-09-15T01:56:23.104Z,60.57
2022-09-15T01:58:52.183Z,61.13
2022-09-15T02:01:23.405Z,56.50
2022-09-15T02:03:55.382Z,54.80
2022-09-15T02:06:25.914Z,58.13
2022-09-15T02:08:55.800Z,59.83
2022-09-15T02:11:28.082Z,57.53
2022-09-15T02:13:59.795Z,62.97
2022-09-15T02:16:31.633Z,62.23
2022-09-15T02:19:11.262Z,63.67
2022-09-15T02:21:43.957Z,61.17
2022-09-15T02:24:14.095Z,61.10
2022-09-15T02:26:42.875Z,57.50
2022-09-15T02:29:13.043Z,61.67
2022-09-15T02:31:41.825Z,55.07
2022-09-15T02:34:13.370Z,53.37
2022-09-15T02:36:42.428Z,53.70
2022-09-15T02:39:12.068Z,53.70
2022-09-15T02:41:41.477Z,52.67
2022-09-15T02:44:10.287Z,51.83
2022-09-15T02:46:39.113Z,51.87
2022-09-15T02:49:07.690Z,48.30
2022-09-15T02:51:37.191Z,42.97
2022-09-15T02:54:05.348Z,41.13
2022-09-15T02:56:33.472Z,40.97
2022-09-15T02:59:01.608Z,40.83
2022-09-15T03:01:32.213Z,41.80
2022-09-15T03:04:00.400Z,40.20
2022-09-15T03:06:34.297Z,42.03
2022-09-15T03:09:04.587Z,42.37
2022-09-15T03:11:32.807Z,39.63
2022-09-15T03:14:01.726Z,42.60
2022-09-15T03:16:30.963Z,40.67
2022-09-15T03:19:00.404Z,44.93
2022-09-15T03:21:29.943Z,44.13
2022-09-15T03:23:58.362Z,45.60
2022-09-15T03:26:27.948Z,47.50
2022-09-15T03:28:56.152Z,44.90
2022-09-15T03:31:24.350Z,41.90
2022-09-15T03:33:54.661Z,44.87
2022-09-15T03:36:22.804Z,45.70
2022-09-15T03:38:51.123Z,39.97
2022-09-15T03:41:19.862Z,42.60
2022-09-15T03:43:49.412Z,43.57
2022-09-15T03:46:17.887Z,41.10
2022-09-15T03:48:47.418Z,43.23
2022-09-15T03:51:15.676Z,43.87
2022-09-15T03:53:44.028Z,40.70
2022-09-15T03:56:13.048Z,43.50
2022-09-15T03:58:41.199Z,40.90
2022-09-15T04:01:10.799Z,41.47
2022-09-15T04:03:45.235Z,40.03
2022-09-15T04:06:16.056Z,48.87
2022-09-15T04:08:44.285Z,40.47
2022-09-15T04:11:13.691Z,48.93
2022-09-15T04:13:42.796Z,41.70
2022-09-15T04:16:13.320Z,41.73
2022-09-15T04:18:41.792Z,33.63
2022-09-15T04:21:10.652Z,40.63
2022-09-15T04:23:39.068Z,35.97
2022-09-15T04:26:08.080Z,34.17
2022-09-15T04:28:37.172Z,37.67
2022-09-15T04:31:06.260Z,37.43
2022-09-15T04:33:36.079Z,29.87
2022-09-15T04:36:05.592Z,31.70
2022-09-15T04:38:33.743Z,28.87
2022-09-15T04:41:01.866Z,34.30
2022-09-15T04:43:30.224Z,27.77
2022-09-15T04:45:58.517Z,32.57
2022-09-15T04:48:27.263Z,37.33
2022-09-15T04:50:56.853Z,31.20
2022-09-15T04:53:24.984Z,36.30
2022-09-15T04:55:53.116Z,39.40
2022-09-15T04:58:21.248Z,36.33
2022-09-15T05:00:49.421Z,37.73
2022-09-15T05:03:17.648Z,41.83
2022-09-15T05:05:49.169Z,40.73
2022-09-15T05:08:18.687Z,39.77
2022-09-15T05:10:48.145Z,44.23
2022-09-15T05:13:16.288Z,40.67
2022-09-15T05:15:44.547Z,42.07
2022-09-15T05:18:12.679Z,42.63
2022-09-15T05:20:40.811Z,36.47
2022-09-15T05:23:08.997Z,37.73
2022-09-15T05:25:38.710Z,38.37
2022-09-15T05:28:07.647Z,41.83
2022-09-15T05:30:39.672Z,38.00
2022-09-15T05:33:09.658Z,37.90
2022-09-15T05:35:37.818Z,37.23
2022-09-15T05:38:05.966Z,35.73
2022-09-15T05:40:34.564Z,36.57
2022-09-15T05:43:04.128Z,38.03
2022-09-15T05:45:32.253Z,33.00
2022-09-15T05:48:00.402Z,37.37
2022-09-15T05:50:28.534Z,35.03
2022-09-15T05:52:56.672Z,32.67
2022-09-15T05:55:24.983Z,37.13
2022-09-15T05:57:53.669Z,33.30
2022-09-15T06:00:23.733Z,33.03
2022-09-15T06:02:51.938Z,32.27
2022-09-15T06:05:20.107Z,28.57
2022-09-15T06:07:48.272Z,30.90
2022-09-15T06:10:16.551Z,34.73
2022-09-15T06:12:44.691Z,30.43
2022-09-15T06:15:13.198Z,34.67
2022-09-15T06:17:42.692Z,29.43
2022-09-15T06:20:11.048Z,31.00
2022-09-15T06:22:39.399Z,34.33
2022-09-15T06:25:08.285Z,32.20
2022-09-15T06:27:36.434Z,31.30
2022-09-15T06:30:04.722Z,33.87
2022-09-15T06:32:33.111Z,32.40
2022-09-15T06:35:06.911Z,34.40
2022-09-15T06:37:35.308Z,29.43
2022-09-15T06:40:04.284Z,26.57
2022-09-15T06:42:32.478Z,24.30
2022-09-15T06:45:00.783Z,29.70
2022-09-15T06:47:33.673Z,25.60
2022-09-15T06:50:03.489Z,26.20
2022-09-15T06:52:31.641Z,26.03
2022-09-15T06:54:59.999Z,26.47
2022-09-15T06:57:28.344Z,25.43
2022-09-15T06:59:56.501Z,26.80
2022-09-15T07:02:24.809Z,27.17
2022-09-15T07:04:53.052Z,30.67
2022-09-15T07:07:22.527Z,25.53
2022-09-15T07:09:50.664Z,27.40
2022-09-15T07:12:18.828Z,30.37
2022-09-15T07:14:46.956Z,28.83
2022-09-15T07:17:15.125Z,27.03
2022-09-15T07:19:43.316Z,27.67
2022-09-15T07:22:12.008Z,28.80
2022-09-15T07:24:41.515Z,28.70
2022-09-15T07:27:09.714Z,28.20
2022-09-15T07:29:38.782Z,34.83
2022-09-15T07:32:07.057Z,31.73
2022-09-15T07:34:35.327Z,29.77
2022-09-15T07:37:03.461Z,33.07
2022-09-15T07:39:32.126Z,30.13
2022-09-15T07:42:01.635Z,28.13
2022-09-15T07:44:29.756Z,29.37
2022-09-15T07:46:57.906Z,25.80
2022-09-15T07:49:26.067Z,33.67
2022-09-15T07:51:54.212Z,27.00
2022-09-15T07:54:23.135Z,30.60
2022-09-15T07:56:51.356Z,26.60
2022-09-15T07:59:20.823Z,29.43
2022-09-15T08:01:49.303Z,27.40
2022-09-15T08:04:17.542Z,27.43
2022-09-15T08:06:45.815Z,26.33
2022-09-15T08:09:17.276Z,27.77
2022-09-15T08:11:45.699Z,30.00
2022-09-15T08:14:13.966Z,22.03
2022-09-15T08:16:43.476Z,23.17
2022-09-15T08:19:11.685Z,27.00
2022-09-15T08:21:40.144Z,26.23
2022-09-15T08:24:08.320Z,22.23
2022-09-15T08:26:38.367Z,23.13
2022-09-15T08:29:07.417Z,21.87
2022-09-15T08:31:35.901Z,21.43
2022-09-15T08:34:06.864Z,24.17
2022-09-15T08:36:35.037Z,23.53
2022-09-15T08:39:04.090Z,23.07
2022-09-15T08:41:34.031Z,28.33
2022-09-15T08:44:04.007Z,24.30
2022-09-15T08:46:35.419Z,23.97
2022-09-15T08:49:09.369Z,26.40
2022-09-15T08:51:41.752Z,23.53
2022-09-15T08:54:14.506Z,23.57
2022-09-15T08:56:43.317Z,25.83
2022-09-15T08:59:13.981Z,25.53
2022-09-15T09:01:52.540Z,21.50
2022-09-15T09:04:29.728Z,22.57
2022-09-15T09:07:01.372Z,26.07
2022-09-15T09:09:34.938Z,21.27
2022-09-15T09:12:07.721Z,24.43
2022-09-15T09:14:41.145Z,28.63
2022-09-15T09:17:17.734Z,26.27
2022-09-15T09:19:57.188Z,27.77
2022-09-15T09:22:27.613Z,19.77
2022-09-15T09:24:57.352Z,19.53
2022-09-15T09:27:26.529Z,19.23
2022-09-15T09:29:57.620Z,18.57
2022-09-15T09:32:26.508Z,17.03
2022-09-15T09:35:01.233Z,18.23
2022-09-15T09:37:29.784Z,19.13
2022-09-15T09:39:57.981Z,16.53
2022-09-15T09:42:29.178Z,16.80
2022-09-15T09:44:57.492Z,15.10
2022-09-15T09:47:29.490Z,11.13
2022-09-15T09:49:59.821Z,10.67
2022-09-15T09:52:35.118Z,11.33
2022-09-15T09:55:04.032Z,9.93
2022-09-15T09:57:32.800Z,8.97
2022-09-15T10:00:01.002Z,9.73
2022-09-15T10:02:29.703Z,6.67
2022-09-15T10:05:19.166Z,8.60
2022-09-15T10:07:48.907Z,8.37
2022-09-15T10:10:21.135Z,12.97
2022-09-15T10:12:49.676Z,9.93
2022-09-15T10:15:23.494Z,7.03
2022-09-15T10:17:52.473Z,9.07
2022-09-15T10:20:22.901Z,9.83
2022-09-15T10:22:52.484Z,8.60
2022-09-15T10:25:49.295Z,13.73
2022-09-15T10:28:21.603Z,5.83
2022-09-15T10:31:03.879Z,6.30
2022-09-15T10:33:32.800Z,7.63
2022-09-15T10:36:03.445Z,8.30
2022-09-15T10:38:46.475Z,11.50
2022-09-15T10:41:25.753Z,9.87
2022-09-15T10:44:02.946Z,8.63
2022-09-15T10:46:38.788Z,6.00
2022-09-15T10:49:16.686Z,5.43
2022-09-15T10:51:51.276Z,6.00
2022-09-15T10:54:26.148Z,5.77
2022-09-15T10:56:57.961Z,4.70
2022-09-15T10:59:35.806Z,4.80
2022-09-15T11:02:24.914Z,5.37
2022-09-15T11:05:06.704Z,5.43
2022-09-15T11:07:40.881Z,2.33
2022-09-15T11:10:11.871Z,3.77
2022-09-15T11:12:50.022Z,3.00
2022-09-15T11:15:23.681Z,7.47
2022-09-15T11:17:59.917Z,4.37
2022-09-15T11:20:38.025Z,3.27
2022-09-15T11:23:11.275Z,2.53
2022-09-15T11:25:42.296Z,5.33
2022-09-15T11:28:13.731Z,5.43
2022-09-15T11:30:47.807Z,5.07
2022-09-15T11:33:20.693Z,2.50
2022-09-15T11:35:51.796Z,3.67
2022-09-15T11:38:34.216Z,3.13
2022-09-15T11:41:08.894Z,2.83
2022-09-15T11:43:45.893Z,4.00
2022-09-15T11:46:16.970Z,2.70
2022-09-15T11:48:47.050Z,1.93
2022-09-15T11:51:18.086Z,3.10
2022-09-15T11:53:50.737Z,3.13
2022-09-15T11:56:23.361Z,3.87
2022-09-15T11:58:57.160Z,4.17
2022-09-15T12:01:26.967Z,5.03
2022-09-15T12:03:58.659Z,3.50
2022-09-15T12:06:30.892Z,5.63
2022-09-15T12:09:00.964Z,4.43
2022-09-15T12:11:30.296Z,3.20
2022-09-15T12:14:00.135Z,3.57
2022-09-15T12:16:28.721Z,5.37
2022-09-15T12:18:58.123Z,8.17
2022-09-15T12:21:33.919Z,4.70
2022-09-15T12:24:05.359Z,5.20
2022-09-15T12:26:34.687Z,4.13
2022-09-15T12:29:04.553Z,5.13
2022-09-15T12:31:34.634Z,4.37
2022-09-15T12:34:04.561Z,4.80
2022-09-15T12:36:45.852Z,8.73
2022-09-15T12:39:29.356Z,5.47
2022-09-15T12:41:59.405Z,8.63
2022-09-15T12:44:33.754Z,17.17
2022-09-15T12:47:02.847Z,9.37
2022-09-15T12:49:32.785Z,4.77
2022-09-15T12:52:01.479Z,8.63
2022-09-15T12:54:31.608Z,3.47
2022-09-15T12:57:00.412Z,12.30
2022-09-15T12:59:30.361Z,4.60
2022-09-15T13:01:59.147Z,4.90
2022-09-15T13:04:51.407Z,5.97
2022-09-15T13:07:46.789Z,4.83
2022-09-15T13:10:27.968Z,4.17
2022-09-15T13:13:00.037Z,4.27
2022-09-15T13:15:29.718Z,3.13
2022-09-15T13:17:58.373Z,6.50
2022-09-15T13:20:32.376Z,3.97
2022-09-15T13:23:01.313Z,4.20
2022-09-15T13:25:30.550Z,9.80
2022-09-15T13:28:00.390Z,18.77
2022-09-15T13:30:39.589Z,10.67
2022-09-15T13:33:15.698Z,7.07
2022-09-15T13:36:05.149Z,8.43
2022-09-15T13:38:52.285Z,8.43
2022-09-15T13:41:43.561Z,7.23
2022-09-15T13:44:19.622Z,6.63
2022-09-15T13:46:55.407Z,6.87
2022-09-15T13:49:35.678Z,6.03
2022-09-15T13:52:08.113Z,9.10
2022-09-15T13:54:36.275Z,6.33
2022-09-15T13:57:04.584Z,6.47
2022-09-15T13:59:34.741Z,7.47
2022-09-15T14:02:09.496Z,6.10
2022-09-15T14:04:37.832Z,7.50
2022-09-15T14:07:06.255Z,5.07
2022-09-15T14:09:38.489Z,7.03
2022-09-15T14:12:09.627Z,3.03
2022-09-15T14:14:39.730Z,5.07
2022-09-15T14:17:19.402Z,4.83
2022-09-15T14:19:49.374Z,4.63
2022-09-15T14:22:25.987Z,3.93
2022-09-15T14:24:54.794Z,3.53
2022-09-15T14:27:24.304Z,4.80
2022-09-15T14:29:55.149Z,4.03
2022-09-15T14:32:24.985Z,3.43
2022-09-15T14:34:54.028Z,5.57
2022-09-15T14:37:24.471Z,4.03
2022-09-15T14:39:56.544Z,4.47
2022-09-15T14:42:29.529Z,5.27
2022-09-15T14:47:47.721Z,3.07
2022-09-15T14:50:17.503Z,2.23
2022-09-15T14:52:48.203Z,4.63
2022-09-15T14:55:18.818Z,3.73
2022-09-15T14:57:50.479Z,3.93
2022-09-15T15:00:20.773Z,4.63
2022-09-15T15:02:55.609Z,3.27
2022-09-15T15:05:25.997Z,5.13
2022-09-15T15:07:55.270Z,7.17
2022-09-15T15:10:24.656Z,4.80
2022-09-15T15:12:54.130Z,8.60
2022-09-15T15:15:22.851Z,3.73
2022-09-15T15:17:54.540Z,5.03
2022-09-15T15:20:24.010Z,2.13
2022-09-15T15:23:11.405Z,6.53
2022-09-15T15:25:39.771Z,4.40
2022-09-15T15:28:08.526Z,3.93
2022-09-15T15:30:44.592Z,6.43
2022-09-15T15:33:20.886Z,2.87
2022-09-15T15:35:49.520Z,1.83
2022-09-15T15:38:19.412Z,2.03
2022-09-15T15:40:47.829Z,1.70
2022-09-15T15:43:23.723Z,2.53
2022-09-15T15:45:57.618Z,3.03
2022-09-15T15:48:28.271Z,2.17
2022-09-15T15:50:56.447Z,2.37
2022-09-15T15:53:24.901Z,2.37
2022-09-15T15:55:53.780Z,9.70
2022-09-15T15:58:21.935Z,5.07
2022-09-15T16:00:51.475Z,4.83
2022-09-15T16:03:20.468Z,3.60
2022-09-15T16:05:51.115Z,4.37
2022-09-15T16:08:22.894Z,4.13
2022-09-15T16:10:51.944Z,3.13
2022-09-15T16:13:21.036Z,1.93
2022-09-15T16:15:49.322Z,5.10
2022-09-15T16:18:17.545Z,2.03
2022-09-15T16:20:45.720Z,2.97
2022-09-15T16:23:17.402Z,4.37
2022-09-15T16:25:48.581Z,2.93
2022-09-15T16:28:16.794Z,4.83
2022-09-15T16:30:45.045Z,5.93
2022-09-15T16:33:15.418Z,2.03
2022-09-15T16:35:49.372Z,1.87
2022-09-15T16:38:19.963Z,5.33
2022-09-15T16:40:48.128Z,4.53
2022-09-15T16:43:17.720Z,4.50
2022-09-15T16:45:46.052Z,3.43
2022-09-15T16:48:14.187Z,4.97
2022-09-15T16:50:50.318Z,1.77
2022-09-15T16:53:32.606Z,5.07
2022-09-15T16:56:00.752Z,6.30
2022-09-15T16:58:29.036Z,2.07
2022-09-15T17:00:57.752Z,4.83
2022-09-15T17:03:27.694Z,2.20
2022-09-15T17:05:57.348Z,6.20
2022-09-15T17:08:27.097Z,3.73
2022-09-15T17:10:57.253Z,1.67
2022-09-15T17:13:29.295Z,6.00
2022-09-15T17:15:58.907Z,4.23
2022-09-15T17:18:27.460Z,4.50
2022-09-15T17:20:55.769Z,2.50
2022-09-15T17:23:24.919Z,2.43
2022-09-15T17:25:53.766Z,4.47
2022-09-15T17:28:24.108Z,6.10
2022-09-15T17:30:53.365Z,5.60
2022-09-15T17:33:22.033Z,8.57
2022-09-15T17:35:50.645Z,5.33
2022-09-15T17:38:21.577Z,3.37
2022-09-15T17:40:50.098Z,7.37
2022-09-15T17:43:19.375Z,7.00
2022-09-15T17:45:49.407Z,3.37
2022-09-15T17:48:17.925Z,5.00
2022-09-15T17:50:48.504Z,4.53
2022-09-15T17:53:17.491Z,4.90
2022-09-15T17:55:45.835Z,6.67
2022-09-15T17:58:14.185Z,3.83
2022-09-15T18:00:43.820Z,4.83
2022-09-15T18:03:20.369Z,12.87
2022-09-15T18:05:48.522Z,3.17
2022-09-15T18:08:16.853Z,6.53
2022-09-15T18:10:45.325Z,5.87
2022-09-15T18:13:15.445Z,3.33
2022-09-15T18:15:43.643Z,5.20
2022-09-15T18:18:14.146Z,3.83
2022-09-15T18:20:44.062Z,9.60
2022-09-15T18:23:13.756Z,6.43
2022-09-15T18:25:42.596Z,5.17
2022-09-15T18:28:10.932Z,4.03
2022-09-15T18:30:41.650Z,4.00
2022-09-15T18:33:14.031Z,4.90
2022-09-15T18:35:43.842Z,4.80
2022-09-15T18:38:12.147Z,5.90
2022-09-15T18:40:40.328Z,8.83
2022-09-15T18:43:08.474Z,9.50
2022-09-15T18:45:36.588Z,4.47
2022-09-15T18:48:07.035Z,5.17
2022-09-15T18:50:37.301Z,4.60
2022-09-15T18:53:06.981Z,2.67
2022-09-15T18:55:35.120Z,11.83
2022-09-15T18:58:03.376Z,5.97
2022-09-15T19:00:32.059Z,6.70
2022-09-15T19:03:00.562Z,2.97
2022-09-15T19:05:28.949Z,2.50
2022-09-15T19:07:57.378Z,6.07
2022-09-15T19:10:27.620Z,4.17
2022-09-15T19:12:55.791Z,5.27
2022-09-15T19:15:24.135Z,5.80
2022-09-15T19:17:52.528Z,4.90
2022-09-15T19:20:21.241Z,7.27
2022-09-15T19:22:51.445Z,5.47
2022-09-15T19:25:19.686Z,3.67
2022-09-15T19:27:49.171Z,4.70
2022-09-15T19:30:17.325Z,5.80
2022-09-15T19:32:45.469Z,8.07
2022-09-15T19:35:13.614Z,5.10
2022-09-15T19:37:42.216Z,4.83
2022-09-15T19:40:11.542Z,3.70
2022-09-15T19:42:40.022Z,5.00
2022-09-15T19:45:11.043Z,5.37
2022-09-15T19:47:39.680Z,4.13
2022-09-15T19:50:08.736Z,5.63
2022-09-15T19:52:36.908Z,7.50
2022-09-15T19:55:06.614Z,2.13
2022-09-15T19:57:34.761Z,5.83
2022-09-15T20:00:02.994Z,5.23
2022-09-15T20:02:32.491Z,4.53
2022-09-15T20:05:00.644Z,2.60
2022-09-15T20:07:28.806Z,6.37
2022-09-15T20:09:58.047Z,5.67
2022-09-15T20:12:26.349Z,5.17
2022-09-15T20:14:54.518Z,6.57
2022-09-15T20:17:22.737Z,4.33
2022-09-15T20:19:52.228Z,2.20
2022-09-15T20:22:20.356Z,4.00
2022-09-15T20:24:48.578Z,5.90
2022-09-15T20:27:16.731Z,3.50
2022-09-15T20:29:44.873Z,3.97
2022-09-15T20:32:12.992Z,4.80
2022-09-15T20:34:41.196Z,3.57
2022-09-15T20:37:11.679Z,8.00
2022-09-15T20:39:40.086Z,2.00
2022-09-15T20:42:08.362Z,4.17
2022-09-15T20:44:36.512Z,3.57
2022-09-15T20:47:04.688Z,2.40
2022-09-15T20:49:32.832Z,5.23
2022-09-15T20:52:00.955Z,4.00
2022-09-15T20:54:30.435Z,2.90
2022-09-15T20:56:58.719Z,2.73
2022-09-15T20:59:26.943Z,2.93
2022-09-15T21:01:55.097Z,4.50
2022-09-15T21:04:23.271Z,3.83
2022-09-15T21:06:51.399Z,3.07
2022-09-15T21:09:19.570Z,8.20
2022-09-15T21:11:53.328Z,3.77
2022-09-15T21:14:21.827Z,4.43
2022-09-15T21:16:50.499Z,4.10
2022-09-15T21:19:18.692Z,6.53
2022-09-15T21:21:46.811Z,9.10
2022-09-15T21:24:14.973Z,5.30
2022-09-15T21:26:57.511Z,12.00
2022-09-15T21:29:27.542Z,3.53
2022-09-15T21:31:56.185Z,4.47
2022-09-15T21:34:24.895Z,6.00
2022-09-15T21:36:53.452Z,3.00
2022-09-15T21:39:21.719Z,4.80
2022-09-15T21:41:50.013Z,4.27
2022-09-15T21:44:18.151Z,5.50
2022-09-15T21:46:47.816Z,6.93
2022-09-15T21:49:17.947Z,4.70
2022-09-15T21:51:46.308Z,7.53
2022-09-15T21:54:14.669Z,6.33
2022-09-15T21:56:42.806Z,4.13
2022-09-15T21:59:12.036Z,4.83
2022-09-15T22:01:41.448Z,6.83
2022-09-15T22:04:11.294Z,3.30
2022-09-15T22:06:40.847Z,5.80
2022-09-15T22:09:09.795Z,7.27
2022-09-15T22:11:38.062Z,3.73
2022-09-15T22:14:08.129Z,6.23
2022-09-15T22:16:37.445Z,2.97
2022-09-15T22:19:06.916Z,8.30
2022-09-15T22:21:39.462Z,7.93
2022-09-15T22:24:07.981Z,8.00
2022-09-15T22:26:37.109Z,5.47
2022-09-15T22:29:06.010Z,2.70
2022-09-15T22:31:34.585Z,7.63
2022-09-15T22:34:02.995Z,3.73
2022-09-15T22:36:32.063Z,7.03
2022-09-15T22:39:04.710Z,9.60
2022-09-15T22:41:33.883Z,7.13
2022-09-15T22:44:02.294Z,4.47
2022-09-15T22:46:30.531Z,7.47
2022-09-15T22:48:58.703Z,7.53
2022-09-15T22:51:26.848Z,4.20
2022-09-15T22:53:57.094Z,3.00
2022-09-15T22:56:27.353Z,8.70
2022-09-15T22:58:55.930Z,7.90
2022-09-15T23:01:25.119Z,8.40
2022-09-15T23:03:53.642Z,4.60
2022-09-15T23:06:22.134Z,3.53
2022-09-15T23:08:51.420Z,9.23
2022-09-15T23:11:19.754Z,7.33
2022-09-15T23:13:49.662Z,4.40
2022-09-15T23:16:18.382Z,6.13
2022-09-15T23:18:46.604Z,3.40
2022-09-15T23:21:14.943Z,7.03
2022-09-15T23:23:46.838Z,5.50
2022-09-15T23:26:15.247Z,4.07
2022-09-15T23:28:43.396Z,7.23
2022-09-15T23:31:13.637Z,6.33
2022-09-15T23:33:42.097Z,6.13
2022-09-15T23:36:11.594Z,9.07
2022-09-15T23:38:40.330Z,4.47
2022-09-15T23:41:08.933Z,5.63
2022-09-15T23:43:37.148Z,8.93
2022-09-15T23:46:05.770Z,7.23
2022-09-15T23:48:35.391Z,5.33
2022-09-15T23:51:03.869Z,5.80
2022-09-15T23:53:32.004Z,4.40
2022-09-15T23:56:00.152Z,2.73
2022-09-15T23:58:28.361Z,5.57
